Terminal Aerodrome Forecast
Issued by NWS Miami, FL

Home | Current Version | Previous Version | Text Only | Print | Product List | Glossary On
Versions: 1 2 3 4 5 6 7 8 9 10 11 12 13 14 15 16 17 18 19 20 21 22 23 24 25 26 27 28 29 30 31 32 33 34 35 36 37 38 39 40 41 42 43 44 45 46 47 48 49 50
000
FTUS42 KMFL 160301 AAA
TAFAPF
TAF AMD
KAPF 160301Z 1603/1624 VRB03KT P6SM SCT030 SCT100
     FM161400 14006KT P6SM SCT030
     FM161800 22008KT P6SM VCSH SCT030 BKN060 PROB30 1618/1624
      VRB10G20KT 3SM TSRA SCT025CB BKN045=

USA.gov is the U.S. government's official web portal to all federal, state and local government web resources and services.